Main page
METAR-TAF:

METAR-TAF

Airports :

Santander, Spain

Santander Airport

latitude: 43-26N, longitude: 003-49W, elevation: 6 m

Current weather observation

The report was made 34 minutes ago, at 23:30 UTC
Calm wind
Temperature 12°C
Humidity 94%
Pressure 1024 hPa
Visibility: 7000 m

METAR: LEXJ 192330Z AUTO 00000KT 7000 NCD 12/11 Q1024

Time: 02:04 (00:04 UTC)

Forecast

The report was made 4 hours and 4 minutes ago, at 20:00 UTC
Forecast valid from 19 at 21 UTC to 20 at 21 UTC
Wind 5 kt from variable directions
Visibility 10 km or more
Few clouds at a height of 4000 ft
Temporary
from 20 at 10 UTC to 20 at 18 UTC
Wind 10 kt from the East/Northeast

TAF: LEXJ 192000Z 1921/2021 VRB05KT 9999 FEW040 TX21/2014Z TN12/2006Z TEMPO 2010/2018 07010KT

Weather observations and forecasts of more than 4000 airports (METAR and TAF reports).

The available stations are represented by yellow and red dots on the map.

Hover mouse over dot to see the name of the station.

Then click to see weather observations and forecasts.

To change the map : click on the green buttons with a black cross to zoom in, on the green button with a dash to zoom out, or on the green arrows for adjacent maps.


METAR-TAF: